Time;durP1;ratioP1;P1;durP2;ratioP2;P2;SDS_P1;SDS_P2;PMS_P1;PMS_P2;Temp;Humidity;BMP_temperature;BMP_pressure;BME280_temperature;BME280_humidity;BME280_pressure;Samples;Min_cycle;Max_cycle;Signal;HPM_P1;HPM_P2
2023/03/31 00:00:33;;;;;;;14.30;4.00;;;;;;;8.69;96.31;98425.06;106609;1286;72956;-68
2023/03/31 00:03:22;;;;;;;14.40;5.00;;;;;;;8.66;96.62;98427.58;106563;1286;67710;-67
2023/03/31 00:06:16;;;;;;;12.60;3.80;;;;;;;8.64;96.67;98421.95;106388;1286;72782;-68
2023/03/31 00:09:14;;;;;;;10.20;4.00;;;;;;;8.63;96.82;98427.00;106566;1288;59494;-67
2023/03/31 00:12:01;;;;;;;11.50;4.10;;;;;;;8.63;97.01;98422.99;106488;1286;58617;-70
2023/03/31 00:14:47;;;;;;;13.00;4.00;;;;;;;8.62;97.17;98421.31;106354;1289;73017;-68
2023/03/31 00:17:34;;;;;;;14.80;4.80;;;;;;;8.62;97.48;98419.56;106343;1286;67833;-68
2023/03/31 00:20:21;;;;;;;13.90;3.80;;;;;;;8.62;97.46;98412.44;106416;1286;72172;-66
2023/03/31 00:23:09;;;;;;;12.60;4.00;;;;;;;8.61;97.68;98406.02;106371;1286;58134;-67
2023/03/31 00:25:56;;;;;;;12.80;3.60;;;;;;;8.62;97.13;98404.88;106469;1286;58817;-67
2023/03/31 00:28:42;;;;;;;11.70;4.00;;;;;;;8.60;97.13;98405.22;106451;1286;71748;-67
2023/03/31 00:31:29;;;;;;;13.60;4.20;;;;;;;8.60;96.89;98403.30;106308;1286;69093;-67
2023/03/31 00:34:16;;;;;;;10.80;3.40;;;;;;;8.59;96.48;98408.89;106319;1286;72450;-66
2023/03/31 00:37:03;;;;;;;18.80;4.30;;;;;;;8.56;96.58;98409.52;106409;1288;57940;-67
2023/03/31 00:39:49;;;;;;;10.30;3.90;;;;;;;8.52;96.84;98407.19;106356;1286;58810;-67
2023/03/31 00:42:41;;;;;;;8.90;3.40;;;;;;;8.50;96.79;98409.55;106450;1288;73025;-67
2023/03/31 00:45:30;;;;;;;10.50;3.50;;;;;;;8.48;97.12;98407.46;106395;1286;65961;-68
2023/03/31 00:48:19;;;;;;;10.30;3.60;;;;;;;8.44;97.48;98408.27;106422;1286;71667;-67
2023/03/31 00:51:06;;;;;;;12.50;4.20;;;;;;;8.42;97.26;98407.03;106349;1286;57297;-66
2023/03/31 00:53:59;;;;;;;9.00;3.30;;;;;;;8.41;97.49;98405.06;106391;1286;60419;-66
2023/03/31 00:56:48;;;;;;;11.70;3.70;;;;;;;8.40;97.75;98405.84;104982;1286;2002393;-66
2023/03/31 00:59:46;;;;;;;14.80;4.30;;;;;;;8.38;97.97;98411.84;106463;1286;67282;-68
2023/03/31 01:02:33;;;;;;;12.80;4.00;;;;;;;8.35;98.30;98405.24;106397;1286;73553;-66
2023/03/31 01:05:48;;;;;;;9.80;3.90;;;;;;;8.34;98.48;98408.01;104866;1286;2002430;-67
2023/03/31 01:08:37;;;;;;;10.70;3.70;;;;;;;8.33;98.46;98407.77;106354;1286;60376;-66
2023/03/31 01:11:26;;;;;;;10.50;3.90;;;;;;;8.32;98.80;98403.89;106399;1287;74114;-67
2023/03/31 01:14:13;;;;;;;10.20;4.00;;;;;;;8.32;98.62;98400.01;106527;1286;66783;-68
2023/03/31 01:17:01;;;;;;;10.10;3.20;;;;;;;8.33;98.52;98396.27;106589;1286;72659;-65
2023/03/31 01:20:27;;;;;;;13.20;3.50;;;;;;;8.33;98.28;98397.80;106601;1286;57389;-67
2023/03/31 01:23:44;;;;;;;10.30;3.30;;;;;;;8.34;98.40;98399.83;106016;1295;60300;-67
2023/03/31 01:27:33;;;;;;;8.30;2.70;;;;;;;8.34;98.19;98394.88;105997;1293;72335;-65
2023/03/31 01:30:42;;;;;;;11.60;3.50;;;;;;;8.32;98.36;98398.45;105963;1293;68852;-65
2023/03/31 01:33:55;;;;;;;14.10;3.80;;;;;;;8.30;98.58;98404.62;106057;1293;71970;-68
2023/03/31 01:37:02;;;;;;;11.20;4.10;;;;;;;8.30;98.58;98403.81;105992;1295;59499;-65
2023/03/31 01:40:17;;;;;;;11.30;3.30;;;;;;;8.30;98.77;98399.21;105962;1292;58015;-67
2023/03/31 01:44:07;;;;;;;12.10;3.40;;;;;;;8.31;98.79;98407.19;106074;1292;71870;-69
2023/03/31 01:47:11;;;;;;;7.30;2.80;;;;;;;8.33;99.28;98402.60;105268;1302;67962;-69
2023/03/31 01:50:07;;;;;;;10.10;3.40;;;;;;;8.34;99.42;98403.21;105354;1302;71463;-66
2023/03/31 01:53:02;;;;;;;9.60;3.30;;;;;;;8.36;99.21;98398.98;105334;1301;59529;-66
2023/03/31 01:56:21;;;;;;;12.60;3.50;;;;;;;8.37;99.26;98392.84;105475;1301;60178;-68
2023/03/31 01:59:16;;;;;;;14.20;3.10;;;;;;;8.39;99.74;98394.42;105371;1294;74430;-66
2023/03/31 02:02:16;;;;;;;9.10;2.60;;;;;;;8.40;99.53;98389.80;105908;1294;69124;-68
2023/03/31 02:05:22;;;;;;;9.60;3.40;;;;;;;8.41;99.22;98390.24;105898;1294;72573;-69
2023/03/31 02:08:15;;;;;;;10.50;3.40;;;;;;;8.41;99.49;98391.63;105789;1294;58231;-68
2023/03/31 02:11:02;;;;;;;9.10;3.60;;;;;;;8.38;99.16;98382.86;105913;1294;60251;-69
2023/03/31 02:13:54;;;;;;;11.40;2.90;;;;;;;8.38;99.43;98389.02;105862;1295;73204;-65
2023/03/31 02:16:46;;;;;;;9.50;3.10;;;;;;;8.35;99.59;98384.70;105797;1294;66533;-68
2023/03/31 02:19:40;;;;;;;10.40;6.70;;;;;;;8.33;99.64;98388.30;105750;1294;72754;-67
2023/03/31 02:22:31;;;;;;;10.60;3.30;;;;;;;8.28;99.82;98388.54;105850;1295;58402;-68
2023/03/31 02:25:23;;;;;;;9.60;3.30;;;;;;;8.27;99.88;98389.77;106484;1286;61129;-68
2023/03/31 02:28:19;;;;;;;8.40;2.70;;;;;;;8.25;99.98;98390.83;106375;1286;72882;-67
2023/03/31 02:31:31;;;;;;;11.50;3.60;;;;;;;8.21;100.00;98389.09;106528;1286;67784;-67
2023/03/31 02:34:18;;;;;;;9.80;3.20;;;;;;;8.16;100.00;98387.57;106377;1286;72403;-68
2023/03/31 02:37:05;;;;;;;11.10;3.80;;;;;;;8.15;100.00;98386.10;106372;1286;59374;-67
2023/03/31 02:39:55;;;;;;;9.30;3.00;;;;;;;8.15;100.00;98386.44;106265;1286;60471;-67
2023/03/31 02:42:42;;;;;;;12.10;3.70;;;;;;;8.15;100.00;98386.41;106489;1286;74068;-69
2023/03/31 02:45:49;;;;;;;12.60;3.40;;;;;;;8.15;100.00;98378.26;106465;1286;66551;-69
2023/03/31 02:48:51;;;;;;;13.90;3.60;;;;;;;8.18;100.00;98374.65;106396;1286;72601;-68
2023/03/31 02:51:46;;;;;;;10.00;2.70;;;;;;;8.21;100.00;98375.11;106321;1286;58004;-68
2023/03/31 02:55:09;;;;;;;10.70;3.20;;;;;;;8.22;100.00;98375.95;106488;1286;60355;-67
2023/03/31 02:58:11;;;;;;;10.90;3.30;;;;;;;8.25;100.00;98372.64;106595;1287;71600;-68
2023/03/31 03:01:23;;;;;;;11.10;3.30;;;;;;;8.27;100.00;98374.39;106455;1286;67818;-64
2023/03/31 03:04:33;;;;;;;13.30;3.70;;;;;;;8.30;100.00;98374.10;106389;1286;71368;-68
2023/03/31 03:07:58;;;;;;;11.00;3.10;;;;;;;8.33;100.00;98374.87;106441;1286;59489;-67
2023/03/31 03:11:20;;;;;;;10.30;3.40;;;;;;;8.35;100.00;98371.26;106714;1286;60186;-68
2023/03/31 03:14:25;;;;;;;9.80;3.60;;;;;;;8.37;100.00;98372.49;106541;1288;73174;-66
2023/03/31 03:17:43;;;;;;;11.60;3.80;;;;;;;8.41;100.00;98369.87;106582;1286;66615;-68
2023/03/31 03:20:34;;;;;;;10.40;3.60;;;;;;;8.41;100.00;98359.79;106342;1286;73218;-69
2023/03/31 03:23:21;;;;;;;11.30;3.10;;;;;;;8.40;100.00;98364.64;106411;1286;59379;-66
2023/03/31 03:26:07;;;;;;;10.00;3.20;;;;;;;8.40;100.00;98360.21;106590;1286;61452;-66
2023/03/31 03:28:55;;;;;;;8.30;3.50;;;;;;;8.41;100.00;98359.64;106448;1286;73304;-65
2023/03/31 03:31:42;;;;;;;10.10;3.50;;;;;;;8.40;100.00;98360.84;106427;1286;68072;-69
2023/03/31 03:34:28;;;;;;;9.40;3.40;;;;;;;8.36;100.00;98360.77;106380;1286;72558;-69
2023/03/31 03:37:15;;;;;;;9.50;3.70;;;;;;;8.30;100.00;98364.67;106381;1286;57334;-67
2023/03/31 03:40:07;;;;;;;10.80;3.70;;;;;;;8.24;100.00;98366.17;106412;1286;60552;-68
2023/03/31 03:42:53;;;;;;;8.60;3.20;;;;;;;8.16;100.00;98370.96;106582;1286;72933;-67
2023/03/31 03:45:40;;;;;;;11.00;4.10;;;;;;;8.10;100.00;98369.05;106454;1286;67899;-67
2023/03/31 03:48:28;;;;;;;8.00;3.00;;;;;;;8.02;100.00;98365.20;106468;1286;71644;-67
2023/03/31 03:51:15;;;;;;;9.00;3.40;;;;;;;8.03;100.00;98365.00;106346;1286;59482;-66
2023/03/31 03:54:02;;;;;;;7.00;2.90;;;;;;;8.02;100.00;98362.02;106434;1286;60649;-67
2023/03/31 03:56:49;;;;;;;11.10;3.80;;;;;;;8.02;100.00;98362.40;105672;1286;1002218;-67
2023/03/31 03:59:36;;;;;;;11.40;4.00;;;;;;;8.02;100.00;98361.70;106371;1286;66651;-66
2023/03/31 04:02:22;;;;;;;8.90;2.90;;;;;;;8.03;100.00;98359.88;106297;1287;73906;-71
2023/03/31 04:05:11;;;;;;;11.00;3.50;;;;;;;8.04;100.00;98356.57;106425;1286;57996;-69
2023/03/31 04:07:58;;;;;;;10.90;3.80;;;;;;;8.06;100.00;98355.29;106386;1286;60599;-70
2023/03/31 04:10:48;;;;;;;11.30;3.70;;;;;;;8.08;100.00;98347.41;106408;1286;72888;-70
2023/03/31 04:13:34;;;;;;;9.30;3.40;;;;;;;8.09;100.00;98344.45;106402;1288;67344;-70
2023/03/31 04:16:22;;;;;;;10.80;3.00;;;;;;;8.10;100.00;98342.44;106371;1286;72797;-69
2023/03/31 04:19:10;;;;;;;13.00;3.80;;;;;;;8.12;100.00;98339.01;106401;1286;60703;-69
2023/03/31 04:22:03;;;;;;;13.30;3.70;;;;;;;8.15;100.00;98334.19;106371;1286;59444;-70
2023/03/31 04:24:51;;;;;;;8.80;3.40;;;;;;;8.16;100.00;98334.38;106385;1286;72895;-68
2023/03/31 04:27:45;;;;;;;12.70;4.20;;;;;;;8.18;100.00;98328.14;106380;1286;69472;-71
2023/03/31 04:30:33;;;;;;;7.60;2.90;;;;;;;8.20;100.00;98329.64;106529;1286;71382;-70
2023/03/31 04:33:22;;;;;;;10.50;3.90;;;;;;;8.22;100.00;98326.27;106245;1286;58195;-70
2023/03/31 04:36:18;;;;;;;9.40;3.40;;;;;;;8.25;100.00;98327.92;106434;1286;58687;-69
2023/03/31 04:39:09;;;;;;;10.90;3.10;;;;;;;8.28;100.00;98326.91;106266;1289;71561;-69
2023/03/31 04:41:58;;;;;;;9.10;3.40;;;;;;;8.30;100.00;98318.77;106125;1289;66771;-67
2023/03/31 04:44:45;;;;;;;10.30;3.30;;;;;;;8.33;100.00;98316.49;106257;1289;72746;-67
2023/03/31 04:47:32;;;;;;;9.70;3.40;;;;;;;8.39;100.00;98317.95;106054;1289;59475;-69
2023/03/31 04:50:18;;;;;;;8.50;2.90;;;;;;;8.43;100.00;98312.56;106070;1289;58240;-67
2023/03/31 04:53:05;;;;;;;10.30;3.00;;;;;;;8.51;99.99;98313.77;106212;1290;71679;-68
2023/03/31 04:55:54;;;;;;;12.90;3.90;;;;;;;8.57;99.85;98312.15;106164;1289;68031;-70
2023/03/31 04:58:41;;;;;;;9.20;3.50;;;;;;;8.60;99.26;98307.48;106212;1289;72991;-66
2023/03/31 05:01:32;;;;;;;8.80;2.60;;;;;;;8.64;99.12;98302.95;106141;1289;58171;-71
2023/03/31 05:04:26;;;;;;;9.20;3.20;;;;;;;8.64;98.51;98300.83;106067;1289;60864;-69
2023/03/31 05:07:13;;;;;;;12.00;2.90;;;;;;;8.65;98.68;98296.52;106291;1289;72026;-69
2023/03/31 05:09:59;;;;;;;11.20;3.40;;;;;;;8.66;98.25;98294.17;106272;1286;67864;-72
2023/03/31 05:12:45;;;;;;;8.60;2.70;;;;;;;8.68;98.46;98291.61;106609;1286;73603;-67
2023/03/31 05:15:32;;;;;;;14.90;3.20;;;;;;;8.71;97.96;98292.08;106355;1286;58071;-67
2023/03/31 05:18:21;;;;;;;9.80;3.20;;;;;;;8.73;97.93;98297.19;106470;1286;60313;-68
2023/03/31 05:21:17;;;;;;;11.20;3.70;;;;;;;8.73;97.71;98298.59;105806;1286;1002523;-69
2023/03/31 05:24:04;;;;;;;10.80;3.50;;;;;;;8.71;97.90;98294.38;106536;1286;67866;-67
2023/03/31 05:26:53;;;;;;;7.80;3.20;;;;;;;8.67;97.84;98294.16;106431;1286;72738;-68
2023/03/31 05:29:40;;;;;;;10.50;3.90;;;;;;;8.64;98.12;98299.45;106360;1286;59559;-70
2023/03/31 05:32:30;;;;;;;10.90;4.00;;;;;;;8.64;98.48;98297.89;106372;1286;59234;-71
2023/03/31 05:35:19;;;;;;;14.40;4.80;;;;;;;8.59;98.72;98297.16;106387;1286;72984;-66
2023/03/31 05:38:06;;;;;;;11.60;4.40;;;;;;;8.52;99.10;98295.54;106386;1288;68944;-69
2023/03/31 05:40:55;;;;;;;11.00;4.30;;;;;;;8.54;99.39;98297.27;106482;1286;72629;-68
2023/03/31 05:43:42;;;;;;;11.10;4.50;;;;;;;8.53;99.44;98298.05;106423;1286;58252;-68
2023/03/31 05:46:28;;;;;;;10.30;4.40;;;;;;;8.51;99.82;98297.70;106530;1286;58885;-67
2023/03/31 05:49:15;;;;;;;11.10;4.60;;;;;;;8.51;99.70;98293.96;106364;1286;72055;-69
2023/03/31 05:52:02;;;;;;;11.60;4.60;;;;;;;8.53;99.82;98292.95;106400;1286;67307;-71
2023/03/31 05:54:48;;;;;;;10.60;4.00;;;;;;;8.56;99.91;98288.97;106368;1286;72618;-70
2023/03/31 05:57:37;;;;;;;12.20;4.70;;;;;;;8.57;99.72;98287.05;106293;1291;57948;-66
2023/03/31 06:00:23;;;;;;;12.50;4.40;;;;;;;8.58;99.62;98287.45;106362;1286;59167;-68
2023/03/31 06:03:10;;;;;;;10.90;4.60;;;;;;;8.59;99.57;98288.45;106440;1286;73081;-68
2023/03/31 06:05:57;;;;;;;11.90;5.10;;;;;;;8.58;99.53;98282.56;106576;1286;66576;-69
2023/03/31 06:08:46;;;;;;;11.60;5.80;;;;;;;8.58;99.44;98282.17;106390;1286;73900;-69
2023/03/31 06:11:32;;;;;;;11.60;4.80;;;;;;;8.56;99.86;98282.95;106348;1286;59322;-69
2023/03/31 06:14:19;;;;;;;11.90;4.60;;;;;;;8.55;99.69;98283.06;106402;1286;61312;-70
2023/03/31 06:17:05;;;;;;;10.80;5.00;;;;;;;8.55;99.62;98280.90;106510;1286;71520;-69
2023/03/31 06:19:54;;;;;;;11.70;6.30;;;;;;;8.58;99.84;98279.91;106596;1286;66638;-68
2023/03/31 06:22:41;;;;;;;11.40;4.80;;;;;;;8.64;99.75;98277.20;106642;1286;71458;-68
2023/03/31 06:25:27;;;;;;;10.60;5.00;;;;;;;8.72;99.54;98281.17;106663;1286;58103;-70
2023/03/31 06:28:23;;;;;;;16.20;5.80;;;;;;;8.78;99.22;98281.99;106510;1286;59077;-69
2023/03/31 06:31:16;;;;;;;10.60;5.10;;;;;;;8.78;98.76;98280.44;106489;1286;72961;-70
2023/03/31 06:34:03;;;;;;;12.50;5.10;;;;;;;8.81;98.68;98282.35;106351;1286;66682;-68
2023/03/31 06:36:50;;;;;;;11.30;5.20;;;;;;;8.83;98.58;98278.80;106271;1286;72706;-70
2023/03/31 06:39:36;;;;;;;11.70;5.80;;;;;;;8.86;98.37;98280.14;106529;1286;58099;-70
2023/03/31 06:42:24;;;;;;;12.40;5.40;;;;;;;8.89;98.33;98284.45;106385;1286;61651;-68
2023/03/31 06:45:11;;;;;;;8.90;4.80;;;;;;;8.92;98.34;98279.44;106388;1286;72901;-70
2023/03/31 06:47:58;;;;;;;10.30;5.70;;;;;;;8.89;97.89;98278.84;106453;1286;66451;-67
2023/03/31 06:50:45;;;;;;;12.00;5.60;;;;;;;8.91;97.90;98278.44;106372;1286;73705;-69
2023/03/31 06:53:32;;;;;;;10.40;4.20;;;;;;;8.93;97.94;98278.77;106498;1286;59701;-69
2023/03/31 06:56:19;;;;;;;11.70;4.60;;;;;;;8.95;97.55;98275.52;106485;1286;60458;-69
2023/03/31 06:59:06;;;;;;;13.20;5.60;;;;;;;8.96;97.46;98277.74;106373;1286;72960;-68
2023/03/31 07:01:52;;;;;;;12.60;5.60;;;;;;;8.99;97.42;98279.27;106366;1286;67441;-68
2023/03/31 07:04:39;;;;;;;13.70;5.60;;;;;;;9.04;97.42;98278.88;106346;1286;70517;-70
2023/03/31 07:07:26;;;;;;;11.30;5.90;;;;;;;9.10;97.16;98279.76;106386;1289;58350;-67
2023/03/31 07:10:13;;;;;;;11.70;4.60;;;;;;;9.13;97.17;98278.05;106423;1286;60152;-69
2023/03/31 07:13:00;;;;;;;16.10;6.10;;;;;;;9.18;97.32;98279.65;106404;1286;72141;-68
2023/03/31 07:15:49;;;;;;;14.30;6.00;;;;;;;9.18;97.66;98276.80;106413;1286;67905;-70
2023/03/31 07:18:36;;;;;;;12.50;5.10;;;;;;;9.14;97.91;98278.13;106348;1286;73855;-67
2023/03/31 07:21:23;;;;;;;12.00;5.40;;;;;;;9.11;98.75;98279.23;106459;1286;60198;-69
2023/03/31 07:24:10;;;;;;;11.30;5.50;;;;;;;9.10;98.87;98279.92;106362;1287;60178;-69
2023/03/31 07:27:03;;;;;;;11.00;4.90;;;;;;;9.14;99.32;98280.72;106443;1286;72853;-66
2023/03/31 07:29:49;;;;;;;10.90;5.20;;;;;;;9.18;99.62;98278.77;106365;1286;66534;-70
2023/03/31 07:32:39;;;;;;;11.00;5.30;;;;;;;9.22;99.39;98277.52;106546;1286;72723;-70
2023/03/31 07:35:26;;;;;;;12.30;5.10;;;;;;;9.19;99.14;98278.11;106431;1286;57764;-66
2023/03/31 07:38:17;;;;;;;10.00;4.50;;;;;;;9.17;98.98;98271.38;106338;1286;226020;-68
2023/03/31 07:41:04;;;;;;;9.70;4.20;;;;;;;9.25;99.12;98271.54;106390;1286;71007;-68
2023/03/31 07:43:56;;;;;;;9.90;4.60;;;;;;;9.29;98.57;98269.91;106411;1286;68110;-71
2023/03/31 07:46:42;;;;;;;14.50;5.40;;;;;;;9.29;98.23;98270.02;106564;1286;72605;-68
2023/03/31 07:49:31;;;;;;;12.10;5.70;;;;;;;9.34;98.24;98272.67;106548;1286;58011;-70
2023/03/31 07:52:18;;;;;;;14.90;6.00;;;;;;;9.42;98.05;98273.39;106571;1286;59156;-69
2023/03/31 07:55:07;;;;;;;13.10;5.20;;;;;;;9.54;97.56;98265.77;106307;1286;73107;-72
2023/03/31 07:57:53;;;;;;;14.60;4.70;;;;;;;9.74;96.23;98267.42;106397;1286;67697;-70
2023/03/31 08:00:40;;;;;;;12.20;5.40;;;;;;;10.07;95.06;98262.31;106410;1286;72795;-70
2023/03/31 08:03:26;;;;;;;10.00;4.20;;;;;;;10.36;94.03;98256.77;106550;1286;57781;-68
2023/03/31 08:06:22;;;;;;;11.30;4.90;;;;;;;10.63;92.74;98251.13;106477;1286;60815;-70
2023/03/31 08:09:09;;;;;;;11.70;4.70;;;;;;;10.77;91.76;98245.79;106440;1286;73345;-67
2023/03/31 08:11:56;;;;;;;11.40;5.90;;;;;;;10.83;91.14;98250.89;106318;1286;67707;-67
2023/03/31 08:14:42;;;;;;;11.80;4.20;;;;;;;10.94;90.43;98252.45;106543;1286;71500;-68
2023/03/31 08:17:29;;;;;;;12.30;4.90;;;;;;;10.86;89.22;98254.32;106541;1286;58209;-69
2023/03/31 08:20:16;;;;;;;9.80;3.80;;;;;;;10.73;89.69;98248.94;106569;1286;58950;-69
2023/03/31 08:23:04;;;;;;;10.50;4.00;;;;;;;10.64;90.75;98248.54;106565;1286;74394;-68
2023/03/31 08:25:51;;;;;;;10.90;4.20;;;;;;;10.59;91.10;98247.48;106641;1286;67728;-70
2023/03/31 08:28:38;;;;;;;9.30;3.50;;;;;;;10.53;91.39;98248.82;106402;1286;74074;-71
2023/03/31 08:31:27;;;;;;;11.80;3.90;;;;;;;10.61;91.79;98247.09;106398;1286;59499;-68
2023/03/31 08:34:15;;;;;;;8.20;3.40;;;;;;;10.73;91.53;98244.42;106345;1286;58931;-67
2023/03/31 08:37:02;;;;;;;13.00;4.40;;;;;;;10.93;90.55;98239.91;106325;1286;73616;-68
2023/03/31 08:39:51;;;;;;;12.20;4.20;;;;;;;11.50;89.31;98241.36;106582;1286;66454;-66
2023/03/31 08:42:43;;;;;;;9.20;4.10;;;;;;;12.21;87.39;98231.23;106343;1286;71765;-65
2023/03/31 08:45:31;;;;;;;10.70;4.10;;;;;;;12.83;84.49;98231.63;106379;1288;57473;-65
2023/03/31 08:48:27;;;;;;;9.40;3.70;;;;;;;12.88;81.11;98230.15;106581;1286;58779;-66
2023/03/31 08:51:27;;;;;;;9.70;3.40;;;;;;;12.55;81.06;98226.77;106406;1286;73517;-66
2023/03/31 08:54:40;;;;;;;11.00;5.70;;;;;;;12.22;82.14;98228.41;106378;1289;69026;-71
2023/03/31 08:58:08;;;;;;;19.30;11.80;;;;;;;11.96;83.17;98231.65;106228;1286;70511;-70
2023/03/31 09:01:18;;;;;;;21.90;11.00;;;;;;;11.88;85.93;98234.19;106413;1286;57363;-66
2023/03/31 09:04:50;;;;;;;11.10;4.90;;;;;;;11.83;85.08;98239.50;106462;1286;58932;-69
2023/03/31 09:08:18;;;;;;;11.00;4.20;;;;;;;11.61;86.03;98239.96;106463;1286;72956;-64
2023/03/31 09:11:27;;;;;;;9.80;4.10;;;;;;;11.41;87.08;98238.08;105941;1293;68023;-65
2023/03/31 09:14:41;;;;;;;9.90;3.80;;;;;;;11.34;87.62;98233.73;105861;1294;71387;-68
2023/03/31 09:17:33;;;;;;;10.30;3.90;;;;;;;11.49;87.34;98232.98;105822;1293;59507;-66
2023/03/31 09:20:31;;;;;;;9.70;3.80;;;;;;;11.87;86.16;98227.00;105799;1294;60499;-67
2023/03/31 09:23:37;;;;;;;9.80;3.60;;;;;;;12.30;84.95;98225.36;105879;1293;72865;-67
2023/03/31 09:26:43;;;;;;;9.60;3.70;;;;;;;12.71;83.92;98219.27;105991;1294;67729;-65
2023/03/31 09:29:46;;;;;;;10.70;3.20;;;;;;;13.01;82.28;98222.33;106339;1293;71505;-65
2023/03/31 09:32:33;;;;;;;9.10;2.90;;;;;;;13.06;79.93;98219.98;106177;1295;58541;-74
2023/03/31 09:35:24;;;;;;;9.30;2.70;;;;;;;12.82;78.42;98225.95;106370;1294;58998;-75
2023/03/31 09:38:12;;;;;;;12.70;3.20;;;;;;;12.56;79.29;98222.57;106222;1294;71812;-72
2023/03/31 09:41:02;;;;;;;7.80;2.90;;;;;;;12.33;80.02;98223.63;105783;1293;66447;-75
2023/03/31 09:43:50;;;;;;;9.90;3.00;;;;;;;12.25;80.84;98228.92;105876;1294;72717;-73
2023/03/31 09:46:38;;;;;;;8.20;2.60;;;;;;;12.28;80.80;98231.84;106021;1294;57902;-65
2023/03/31 09:49:34;;;;;;;7.50;2.50;;;;;;;12.41;80.39;98230.70;106384;1289;60343;-65
2023/03/31 09:52:38;;;;;;;7.60;2.40;;;;;;;12.52;79.35;98226.10;106246;1287;73254;-65
2023/03/31 09:55:35;;;;;;;7.70;2.40;;;;;;;12.67;79.34;98231.30;106360;1288;66472;-66
2023/03/31 09:58:26;;;;;;;11.40;2.70;;;;;;;12.80;78.50;98234.84;106389;1288;73061;-69
2023/03/31 10:01:14;;;;;;;10.60;2.50;;;;;;;12.85;78.84;98231.70;106398;1288;59669;-65
2023/03/31 10:04:04;;;;;;;9.80;2.70;;;;;;;13.02;77.09;98232.23;106341;1288;58770;-69
2023/03/31 10:06:52;;;;;;;7.90;2.90;;;;;;;13.06;77.77;98232.10;106351;1288;71683;-70
2023/03/31 10:09:40;;;;;;;9.30;3.00;;;;;;;12.99;77.58;98231.29;106376;1289;67873;-65
2023/03/31 10:12:30;;;;;;;10.20;3.30;;;;;;;12.78;77.79;98228.95;106246;1287;74068;-66
2023/03/31 10:15:27;;;;;;;9.70;2.60;;;;;;;12.57;79.47;98233.41;106282;1288;58062;-68
2023/03/31 10:18:17;;;;;;;7.70;2.60;;;;;;;12.35;80.11;98234.23;106348;1288;58796;-68
2023/03/31 10:21:14;;;;;;;7.10;2.30;;;;;;;12.13;80.37;98235.85;106319;1291;73204;-66
2023/03/31 10:24:07;;;;;;;7.80;2.60;;;;;;;11.90;80.44;98237.52;106376;1288;65729;-65
2023/03/31 10:26:56;;;;;;;7.90;2.60;;;;;;;11.85;82.02;98236.13;106337;1288;71183;-65
2023/03/31 10:29:43;;;;;;;9.70;3.00;;;;;;;11.94;82.57;98238.48;106328;1288;58386;-69
2023/03/31 10:32:37;;;;;;;8.60;2.90;;;;;;;12.11;82.84;98232.03;106472;1288;59444;-68
2023/03/31 10:35:33;;;;;;;7.60;2.00;;;;;;;12.78;81.64;98231.45;106374;1289;73170;-67
2023/03/31 10:38:44;;;;;;;6.30;1.80;;;;;;;13.18;78.38;98233.56;106484;1288;65741;-66
2023/03/31 10:41:32;;;;;;;6.70;1.70;;;;;;;13.33;76.69;98229.70;106209;1288;72601;-69
2023/03/31 10:44:34;;;;;;;7.70;1.80;;;;;;;13.43;74.74;98226.84;106261;1288;57621;-67
2023/03/31 10:47:21;;;;;;;7.60;1.80;;;;;;;13.40;74.84;98229.54;106454;1288;58998;-71
2023/03/31 10:50:15;;;;;;;7.80;2.40;;;;;;;13.31;74.30;98234.52;106391;1288;72988;-65
2023/03/31 10:53:14;;;;;;;9.80;2.80;;;;;;;13.34;74.47;98232.67;106336;1291;67842;-67
2023/03/31 10:56:28;;;;;;;7.70;2.70;;;;;;;13.42;73.08;98228.43;106239;1288;72839;-67
2023/03/31 11:00:12;;;;;;;9.50;2.70;;;;;;;13.75;72.57;98227.38;106402;1288;57392;-67
2023/03/31 11:03:17;;;;;;;7.00;2.00;;;;;;;14.09;71.75;98229.35;106380;1288;58910;-65
2023/03/31 11:06:21;;;;;;;7.20;2.00;;;;;;;14.07;71.23;98229.93;106418;1288;73125;-69
2023/03/31 11:09:26;;;;;;;10.60;3.00;;;;;;;13.86;70.94;98228.42;106428;1288;67743;-66
2023/03/31 11:12:57;;;;;;;8.60;2.40;;;;;;;13.73;72.01;98227.23;106496;1288;73437;-70
2023/03/31 11:15:44;;;;;;;9.20;2.20;;;;;;;13.50;71.96;98222.38;106414;1288;58120;-67
2023/03/31 11:18:58;;;;;;;8.20;2.40;;;;;;;13.28;72.80;98214.95;106311;1287;59121;-65
2023/03/31 11:22:11;;;;;;;7.00;2.30;;;;;;;13.09;73.23;98221.46;106380;1288;73184;-71
2023/03/31 11:25:28;;;;;;;8.90;2.80;;;;;;;12.99;74.37;98217.44;106467;1288;67887;-66
2023/03/31 11:28:56;;;;;;;11.60;3.20;;;;;;;12.82;74.69;98218.38;106346;1288;72655;-67
2023/03/31 11:31:58;;;;;;;8.90;3.00;;;;;;;12.67;74.80;98212.82;105798;1295;59261;-67
2023/03/31 11:35:13;;;;;;;10.10;2.90;;;;;;;12.54;75.72;98207.58;105893;1294;61383;-66
2023/03/31 11:38:11;;;;;;;10.50;3.40;;;;;;;12.41;76.18;98211.85;105841;1294;73101;-68
2023/03/31 11:41:16;;;;;;;10.60;4.20;;;;;;;12.35;77.08;98201.53;105776;1294;68012;-69
2023/03/31 11:44:11;;;;;;;15.30;3.20;;;;;;;12.55;78.02;98196.69;105788;1294;72569;-67
2023/03/31 11:47:06;;;;;;;7.10;2.30;;;;;;;13.67;77.11;98204.48;105591;1294;58151;-69
2023/03/31 11:50:18;;;;;;;8.50;2.60;;;;;;;14.77;71.72;98195.63;105711;1294;59143;-69
2023/03/31 11:53:37;;;;;;;7.90;2.70;;;;;;;15.54;67.91;98191.98;105751;1294;73282;-66
2023/03/31 11:56:32;;;;;;;7.50;2.60;;;;;;;15.83;68.25;98182.27;105807;1294;67991;-66
2023/03/31 11:59:21;;;;;;;8.80;2.80;;;;;;;16.04;67.69;98179.69;105735;1296;72620;-68
2023/03/31 12:02:43;;;;;;;11.40;3.00;;;;;;;16.25;65.68;98179.49;105703;1294;57501;-67
2023/03/31 12:05:33;;;;;;;9.70;2.70;;;;;;;16.54;63.40;98178.20;105830;1294;59358;-71
2023/03/31 12:08:34;;;;;;;6.90;2.20;;;;;;;16.51;62.21;98176.91;105990;1288;72983;-70
2023/03/31 12:11:55;;;;;;;7.60;2.10;;;;;;;16.58;60.98;98171.56;106313;1289;67768;-73
2023/03/31 12:15:21;;;;;;;8.90;2.50;;;;;;;16.75;61.14;98172.87;106361;1288;72537;-71
2023/03/31 12:18:17;;;;;;;8.00;2.50;;;;;;;16.83;59.01;98166.58;106433;1288;59015;-71
2023/03/31 12:21:05;;;;;;;9.00;2.60;;;;;;;16.68;59.59;98163.36;106374;1288;60262;-70
2023/03/31 12:23:52;;;;;;;7.50;2.40;;;;;;;16.55;58.53;98162.10;106462;1288;71812;-68
2023/03/31 12:27:23;;;;;;;7.90;2.20;;;;;;;16.37;57.90;98156.77;106436;1288;67769;-71
2023/03/31 12:30:41;;;;;;;8.30;2.30;;;;;;;16.01;58.69;98158.70;106379;1288;72495;-73
2023/03/31 12:33:38;;;;;;;8.00;2.40;;;;;;;15.73;60.03;98160.83;106312;1288;57410;-68
2023/03/31 12:36:50;;;;;;;8.90;2.50;;;;;;;15.34;61.16;98163.29;106248;1288;60232;-66
2023/03/31 12:39:56;;;;;;;8.10;2.60;;;;;;;14.93;63.58;98165.77;106589;1290;72864;-67
2023/03/31 12:43:08;;;;;;;8.40;2.20;;;;;;;14.44;66.01;98167.84;106163;1296;66559;-69
2023/03/31 12:46:17;;;;;;;10.80;2.30;;;;;;;14.06;68.35;98170.34;105971;1301;71250;-67
2023/03/31 12:49:37;;;;;;;7.60;2.30;;;;;;;13.63;70.11;98175.16;105945;1301;57430;-69
2023/03/31 12:52:52;;;;;;;7.70;2.40;;;;;;;13.22;72.09;98179.84;105539;1301;60128;-67
2023/03/31 12:55:44;;;;;;;7.70;2.20;;;;;;;12.83;73.93;98175.52;105574;1301;71917;-67
2023/03/31 12:58:40;;;;;;;9.40;2.50;;;;;;;12.50;74.89;98181.11;105333;1300;66572;-68
2023/03/31 13:01:27;;;;;;;7.40;2.90;;;;;;;12.26;76.89;98174.94;105534;1301;71725;-70
2023/03/31 13:04:25;;;;;;;10.20;3.50;;;;;;;12.09;77.93;98179.45;105433;1306;58115;-71
2023/03/31 13:07:40;;;;;;;8.70;3.00;;;;;;;11.97;79.01;98177.27;105442;1301;60169;-70
2023/03/31 13:10:30;;;;;;;8.10;2.60;;;;;;;11.91;79.89;98170.13;105539;1301;71782;-73
2023/03/31 13:13:17;;;;;;;7.70;2.30;;;;;;;12.01;79.74;98162.59;105501;1301;66749;-69
2023/03/31 13:16:03;;;;;;;15.50;2.20;;;;;;;12.21;79.04;98155.31;105446;1301;71350;-67
2023/03/31 13:18:54;;;;;;;6.80;2.20;;;;;;;12.45;78.78;98155.24;105552;1301;57935;-70
2023/03/31 13:21:58;;;;;;;7.10;2.40;;;;;;;12.62;78.69;98154.52;105529;1301;58914;-68
2023/03/31 13:24:45;;;;;;;;;;;;;;;12.73;78.49;98151.77;105614;1301;73114;-69
2023/03/31 13:27:33;;;;;;;10.70;2.50;;;;;;;12.83;79.38;98150.68;105479;1301;65476;-70
2023/03/31 13:30:48;;;;;;;8.60;2.30;;;;;;;12.93;79.40;98147.24;105437;1300;71784;-70
2023/03/31 13:33:58;;;;;;;8.00;2.40;;;;;;;13.04;79.50;98142.77;105505;1301;57525;-70